Time;durP1;ratioP1;P1;durP2;ratioP2;P2;SDS_P1;SDS_P2;PMS_P1;PMS_P2;Temp;Humidity;BMP_temperature;BMP_pressure;BME280_temperature;BME280_humidity;BME280_pressure;Samples;Min_cycle;Max_cycle;Signal;HPM_P1;HPM_P2
2022/06/15 00:01:05;;;;;;;;;;;;;;;;;;;;;
2022/06/15 00:03:42;;;;;;;;;;;;;;;;;;4958936;28;20016;-92
2022/06/15 00:09:14;;;;;;;;;;;;;;;;;;4961219;28;20087;-91
2022/06/15 00:12:11;;;;;;;;;;;;;;;;;;;;;
2022/06/15 00:17:59;;;;;;;;;;;;;;;;;;4961871;28;19930;-91
2022/06/15 00:20:43;;;;;;;;;;;;;;;;;;4930989;28;20021;-91
2022/06/15 00:23:20;;;;;;;;;;;;;;;;;;4928191;28;20128;-93
2022/06/15 00:26:06;;;;;;;;;;;;;;;;;;;;;
2022/06/15 00:34:54;;;;;;;;;;;;;;;;;;4926535;28;19945;-92
2022/06/15 00:38:00;;;;;;;;;;;;;;;;;;4959501;28;20016;-92
2022/06/15 00:40:38;;;;;;;;;;;;;;;;;;4960299;28;20020;-91
2022/06/15 00:46:42;;;;;;;;;;;;;;;;;;;;;
2022/06/15 00:49:38;;;;;;;;;;;;;;;;;;4902640;28;19982;-91
2022/06/15 00:52:15;;;;;;;;;;;;;;;;;;4876255;29;19990;-93
2022/06/15 00:55:34;;;;;;;;;;;;;;;;;;;;;
2022/06/15 00:58:37;;;;;;;;;;;;;;;;;;4864149;29;20427;-92
2022/06/15 01:01:29;;;;;;;;;;;;;;;;;;;;;
2022/06/15 01:07:18;;;;;;;;;;;;;;;;;;;;;
2022/06/15 01:09:55;;;;;;;;;;;;;;;;;;4900456;28;20817;-91
2022/06/15 01:12:52;;;;;;;;;;;;;;;;;;;;;
2022/06/15 01:24:59;;;;;;;;;;;;;;;;;;4860592;29;19927;-91
2022/06/15 01:27:57;;;;;;;;;;;;;;;;;;4902120;29;20025;-92
2022/06/15 01:30:43;;;;;;;;;;;;;;;;;;;;;
2022/06/15 01:43:03;;;;;;;;;;;;;;;;;;4832406;29;20063;-90
2022/06/15 02:04:11;;;;;;;;;;;;;;;;;;4848220;29;20435;-92
2022/06/15 02:07:49;;;;;;;;;;;;;;;;;;;;;
2022/06/15 02:13:50;;;;;;;;;;;;;;;;;;;;;
2022/06/15 02:19:08;;;;;;;;;;;;;;;;;;5004339;28;19929;-87
2022/06/15 02:21:34;;;;;;;;;;;;;;;;;;4980556;28;19924;-87
2022/06/15 02:24:00;;;;;;;;;;;;;;;;;;4986581;28;20273;-87
2022/06/15 02:26:26;;;;;;;;;;;;;;;;;;4964089;28;19929;-87
2022/06/15 02:28:52;;;;;;;;;;;;;;;;;;4980963;28;19952;-87
2022/06/15 02:31:18;;;;;;;;;;;;;;;;;;4992107;28;19974;-87
2022/06/15 02:33:44;;;;;;;;;;;;;;;;;;4977678;28;19929;-87
2022/06/15 02:36:10;;;;;;;;;;;;;;;;;;4984904;28;19925;-87
2022/06/15 02:38:36;;;;;;;;;;;;;;;;;;4979071;28;20311;-87
2022/06/15 02:41:02;;;;;;;;;;;;;;;;;;4962823;28;22036;-86
2022/06/15 02:43:28;;;;;;;;;;;;;;;;;;4980246;28;20040;-87
2022/06/15 02:45:55;;;;;;;;;;;;;;;;;;4975606;28;19935;-87
2022/06/15 02:48:22;;;;;;;;;;;;;;;;;;4955057;28;19929;-87
2022/06/15 02:50:48;;;;;;;;;;;;;;;;;;4961947;28;19929;-87
2022/06/15 02:53:14;;;;;;;;;;;;;;;;;;4966711;28;19933;-87
2022/06/15 02:55:41;;;;;;;;;;;;;;;;;;4965540;28;19928;-87
2022/06/15 02:58:07;;;;;;;;;;;;;;;;;;4967173;28;19925;-87
2022/06/15 03:00:33;;;;;;;;;;;;;;;;;;4959008;28;19925;-87
2022/06/15 03:02:59;;;;;;;;;;;;;;;;;;4982227;28;20056;-87
2022/06/15 03:05:25;;;;;;;;;;;;;;;;;;4949709;28;19928;-87
2022/06/15 03:07:51;;;;;;;;;;;;;;;;;;4977250;28;19930;-87
2022/06/15 03:10:17;;;;;;;;;;;;;;;;;;4949920;28;21044;-86
2022/06/15 03:12:43;;;;;;;;;;;;;;;;;;4960054;28;19940;-87
2022/06/15 03:15:10;;;;;;;;;;;;;;;;;;4982585;28;19925;-87
2022/06/15 03:17:36;;;;;;;;;;;;;;;;;;4973743;28;20060;-87
2022/06/15 03:20:02;;;;;;;;;;;;;;;;;;4983472;28;19928;-87
2022/06/15 03:22:28;;;;;;;;;;;;;;;;;;4986706;28;20299;-87
2022/06/15 03:24:53;;;;;;;;;;;;;;;;;;4989137;28;19973;-87
2022/06/15 03:27:19;;;;;;;;;;;;;;;;;;4985068;28;19929;-87
2022/06/15 03:29:45;;;;;;;;;;;;;;;;;;4979513;28;20853;-87
2022/06/15 03:32:14;;;;;;;;;;;;;;;;;;4979640;28;19933;-87
2022/06/15 03:34:40;;;;;;;;;;;;;;;;;;4981255;28;19929;-87
2022/06/15 03:37:06;;;;;;;;;;;;;;;;;;4965951;28;19925;-87
2022/06/15 03:39:32;;;;;;;;;;;;;;;;;;4960363;28;19932;-87
2022/06/15 03:41:57;;;;;;;;;;;;;;;;;;4950690;28;19925;-87
2022/06/15 03:44:23;;;;;;;;;;;;;;;;;;4948252;28;20372;-87
2022/06/15 03:46:51;;;;;;;;;;;;;;;;;;4961103;28;20868;-87
2022/06/15 03:49:18;;;;;;;;;;;;;;;;;;4965533;28;20705;-87
2022/06/15 03:51:45;;;;;;;;;;;;;;;;;;4962635;28;19944;-87
2022/06/15 03:54:11;;;;;;;;;;;;;;;;;;4949304;28;19925;-87
2022/06/15 03:56:38;;;;;;;;;;;;;;;;;;4961633;28;19926;-87
2022/06/15 03:59:04;;;;;;;;;;;;;;;;;;4971676;28;19922;-87
2022/06/15 04:01:30;;;;;;;;;;;;;;;;;;4965669;28;19940;-87
2022/06/15 04:03:56;;;;;;;;;;;;;;;;;;4965275;28;19929;-87
2022/06/15 04:06:23;;;;;;;;;;;;;;;;;;4948986;28;20204;-86
2022/06/15 04:08:50;;;;;;;;;;;;;;;;;;4977647;28;20462;-87
2022/06/15 04:11:58;;;;;;;;;;;;;;;;;;4963309;28;19929;-87
2022/06/15 04:14:03;;;;;;;;;;;;;;;;;;4965486;28;19930;-87
2022/06/15 04:16:29;;;;;;;;;;;;;;;;;;4961245;28;19922;-87
2022/06/15 04:18:55;;;;;;;;;;;;;;;;;;4962840;28;19934;-87
2022/06/15 04:21:20;;;;;;;;;;;;;;;;;;4950218;28;19933;-87
2022/06/15 04:23:46;;;;;;;;;;;;;;;;;;4956879;28;20533;-87
2022/06/15 04:26:12;;;;;;;;;;;;;;;;;;4967932;28;20346;-86
2022/06/15 04:28:38;;;;;;;;;;;;;;;;;;4964774;28;20391;-87
2022/06/15 04:31:04;;;;;;;;;;;;;;;;;;4985780;28;19948;-87
2022/06/15 04:33:30;;;;;;;;;;;;;;;;;;4955213;28;19983;-87
2022/06/15 04:35:56;;;;;;;;;;;;;;;;;;4985154;28;19936;-87
2022/06/15 04:38:22;;;;;;;;;;;;;;;;;;4969327;28;19972;-87
2022/06/15 04:40:48;;;;;;;;;;;;;;;;;;4978883;28;19934;-87
2022/06/15 04:43:14;;;;;;;;;;;;;;;;;;4966722;28;19933;-87
2022/06/15 04:45:40;;;;;;;;;;;;;;;;;;4982853;28;19922;-87
2022/06/15 04:48:06;;;;;;;;;;;;;;;;;;4967239;28;20738;-87
2022/06/15 04:50:32;;;;;;;;;;;;;;;;;;4961460;28;19983;-87
2022/06/15 04:52:58;;;;;;;;;;;;;;;;;;4967583;28;20020;-87
2022/06/15 04:55:24;;;;;;;;;;;;;;;;;;4963240;28;19929;-87
2022/06/15 04:57:54;;;;;;;;;;;;;;;;;;4957302;28;19933;-87
2022/06/15 05:00:20;;;;;;;;;;;;;;;;;;4985436;28;19925;-87
2022/06/15 05:02:46;;;;;;;;;;;;;;;;;;4958739;28;19988;-87
2022/06/15 05:05:12;;;;;;;;;;;;;;;;;;4963273;28;19929;-87
2022/06/15 05:07:38;;;;;;;;;;;;;;;;;;4954801;28;19937;-87
2022/06/15 05:10:04;;;;;;;;;;;;;;;;;;4967260;28;19945;-88
2022/06/15 05:12:30;;;;;;;;;;;;;;;;;;4963997;28;19929;-88
2022/06/15 05:14:56;;;;;;;;;;;;;;;;;;4968921;28;19965;-88
2022/06/15 05:17:22;;;;;;;;;;;;;;;;;;4990523;28;19944;-88
2022/06/15 05:19:48;;;;;;;;;;;;;;;;;;4966734;28;19929;-88
2022/06/15 05:22:14;;;;;;;;;;;;;;;;;;4965668;28;19929;-88
2022/06/15 05:24:40;;;;;;;;;;;;;;;;;;4991472;28;20055;-88
2022/06/15 05:27:06;;;;;;;;;;;;;;;;;;4968083;28;19925;-88
2022/06/15 05:29:32;;;;;;;;;;;;;;;;;;4976865;28;19936;-89
2022/06/15 05:31:58;;;;;;;;;;;;;;;;;;4999270;28;20808;-88
2022/06/15 05:34:24;;;;;;;;;;;;;;;;;;4995120;28;19929;-88
2022/06/15 05:36:50;;;;;;;;;;;;;;;;;;4987720;28;19921;-87
2022/06/15 05:39:16;;;;;;;;;;;;;;;;;;4992159;28;19933;-88
2022/06/15 05:41:42;;;;;;;;;;;;;;;;;;4987885;28;19933;-88
2022/06/15 05:46:39;;;;;;;;;;;;;;;;;;4998604;28;19976;-87
2022/06/15 05:49:05;;;;;;;;;;;;;;;;;;4989200;28;19929;-87
2022/06/15 05:51:31;;;;;;;;;;;;;;;;;;4986370;28;19983;-87
2022/06/15 05:53:57;;;;;;;;;;;;;;;;;;4990994;28;20750;-87
2022/06/15 05:56:23;;;;;;;;;;;;;;;;;;4974054;28;20391;-88
2022/06/15 05:58:49;;;;;;;;;;;;;;;;;;4972021;28;19930;-87
2022/06/15 06:01:15;;;;;;;;;;;;;;;;;;4973288;28;19929;-87
2022/06/15 06:03:41;;;;;;;;;;;;;;;;;;4989913;28;19929;-88
2022/06/15 06:06:07;;;;;;;;;;;;;;;;;;4989540;28;19925;-88
2022/06/15 06:08:33;;;;;;;;;;;;;;;;;;4974470;28;20295;-88
2022/06/15 06:10:59;;;;;;;;;;;;;;;;;;4979316;28;20289;-88
2022/06/15 06:13:25;;;;;;;;;;;;;;;;;;4982468;28;19932;-88
2022/06/15 06:15:52;;;;;;;;;;;;;;;;;;4976845;28;19932;-88
2022/06/15 06:18:18;;;;;;;;;;;;;;;;;;4979941;28;19940;-87
2022/06/15 06:20:43;;;;;;;;;;;;;;;;;;4976106;28;19929;-87
2022/06/15 06:23:09;;;;;;;;;;;;;;;;;;4977543;28;19922;-88
2022/06/15 06:25:35;;;;;;;;;;;;;;;;;;4973296;28;19926;-87
2022/06/15 06:28:01;;;;;;;;;;;;;;;;;;4980243;28;20296;-88
2022/06/15 06:30:27;;;;;;;;;;;;;;;;;;4958369;28;20388;-87
2022/06/15 06:32:53;;;;;;;;;;;;;;;;;;4958543;28;20428;-87
2022/06/15 06:35:19;;;;;;;;;;;;;;;;;;4973045;28;19922;-87
2022/06/15 06:37:45;;;;;;;;;;;;;;;;;;4975682;28;19976;-88
2022/06/15 06:40:11;;;;;;;;;;;;;;;;;;4972419;28;19961;-87
2022/06/15 06:42:37;;;;;;;;;;;;;;;;;;4967444;28;19921;-88
2022/06/15 06:45:03;;;;;;;;;;;;;;;;;;4954927;28;19937;-87
2022/06/15 06:47:29;;;;;;;;;;;;;;;;;;4939580;28;19969;-88
2022/06/15 06:58:09;;;;;;;;;;;;;;;;;;5010865;28;19933;-88
2022/06/15 07:00:35;;;;;;;;;;;;;;;;;;4972023;28;20015;-89
2022/06/15 07:03:01;;;;;;;;;;;;;;;;;;4990112;28;20039;-89
2022/06/15 07:05:27;;;;;;;;;;;;;;;;;;4975258;28;19929;-88
2022/06/15 07:07:53;;;;;;;;;;;;;;;;;;4973977;28;19929;-89
2022/06/15 07:10:19;;;;;;;;;;;;;;;;;;4977554;28;22808;-89
2022/06/15 07:12:45;;;;;;;;;;;;;;;;;;4969839;28;19933;-88
2022/06/15 07:15:11;;;;;;;;;;;;;;;;;;4989937;28;19935;-88
2022/06/15 07:17:37;;;;;;;;;;;;;;;;;;4983185;28;19932;-89
2022/06/15 07:20:03;;;;;;;;;;;;;;;;;;4974299;28;20398;-89
2022/06/15 07:22:29;;;;;;;;;;;;;;;;;;4971887;28;20382;-89
2022/06/15 07:24:56;;;;;;;;;;;;;;;;;;4982233;28;20054;-88
2022/06/15 07:27:24;;;;;;;;;;;;;;;;;;4964786;28;20032;-89
2022/06/15 07:29:50;;;;;;;;;;;;;;;;;;4956440;28;19957;-89
2022/06/15 07:32:16;;;;;;;;;;;;;;;;;;4959970;28;19969;-88
2022/06/15 07:34:42;;;;;;;;;;;;;;;;;;4974139;28;19968;-89
2022/06/15 07:37:10;;;;;;;;;;;;;;;;;;4976687;28;19922;-88
2022/06/15 07:39:38;;;;;;;;;;;;;;;;;;4957807;28;19948;-89
2022/06/15 07:42:04;;;;;;;;;;;;;;;;;;4963111;28;19933;-89
2022/06/15 07:44:39;;;;;;;;;;;;;;;;;;4980394;28;19928;-89
2022/06/15 07:49:59;;;;;;;;;;;;;;;;;;4979795;28;19963;-89
2022/06/15 07:52:25;;;;;;;;;;;;;;;;;;4960457;28;20276;-89
2022/06/15 07:54:54;;;;;;;;;;;;;;;;;;4971059;28;19922;-89
2022/06/15 07:57:20;;;;;;;;;;;;;;;;;;4966024;28;19933;-89
2022/06/15 07:59:46;;;;;;;;;;;;;;;;;;4960289;28;19921;-89
2022/06/15 08:02:12;;;;;;;;;;;;;;;;;;4998873;28;20021;-88
2022/06/15 08:04:38;;;;;;;;;;;;;;;;;;4971325;28;19926;-89
2022/06/15 08:07:06;;;;;;;;;;;;;;;;;;5000411;28;19971;-89
2022/06/15 08:09:35;;;;;;;;;;;;;;;;;;4954736;28;19984;-89
2022/06/15 08:12:19;;;;;;;;;;;;;;;;;;4962574;28;19929;-89
2022/06/15 08:14:45;;;;;;;;;;;;;;;;;;4977851;28;20292;-89
2022/06/15 08:17:11;;;;;;;;;;;;;;;;;;4980544;28;19925;-89
2022/06/15 08:19:37;;;;;;;;;;;;;;;;;;4974868;28;19922;-89
2022/06/15 08:22:03;;;;;;;;;;;;;;;;;;4960713;28;19922;-89
2022/06/15 08:24:29;;;;;;;;;;;;;;;;;;4950112;28;19929;-89
2022/06/15 08:26:55;;;;;;;;;;;;;;;;;;4981848;28;19922;-89
2022/06/15 08:29:21;;;;;;;;;;;;;;;;;;4976193;28;19930;-89
2022/06/15 08:31:46;;;;;;;;;;;;;;;;;;4972768;28;19951;-89
2022/06/15 08:34:12;;;;;;;;;;;;;;;;;;5002450;28;19921;-89
2022/06/15 08:36:38;;;;;;;;;;;;;;;;;;4976831;28;19949;-89
2022/06/15 08:39:04;;;;;;;;;;;;;;;;;;4965069;28;21563;-89
2022/06/15 08:41:30;;;;;;;;;;;;;;;;;;4953684;28;19928;-89
2022/06/15 08:43:57;;;;;;;;;;;;;;;;;;4959746;28;20261;-89
2022/06/15 08:46:23;;;;;;;;;;;;;;;;;;4957307;28;19933;-89
2022/06/15 08:48:49;;;;;;;;;;;;;;;;;;4962019;28;19929;-89
2022/06/15 08:51:15;;;;;;;;;;;;;;;;;;4962467;28;20016;-89
2022/06/15 08:53:41;;;;;;;;;;;;;;;;;;4979369;28;20024;-89
2022/06/15 08:56:07;;;;;;;;;;;;;;;;;;4976012;28;19925;-89
2022/06/15 08:58:33;;;;;;;;;;;;;;;;;;4978693;28;20586;-90
2022/06/15 09:00:59;;;;;;;;;;;;;;;;;;4969938;28;19975;-90
2022/06/15 09:03:27;;;;;;;;;;;;;;;;;;4976839;28;19955;-90
2022/06/15 09:05:53;;;;;;;;;;;;;;;;;;4999751;28;19975;-90
2022/06/15 09:08:19;;;;;;;;;;;;;;;;;;4996394;28;19921;-89
2022/06/15 09:10:45;;;;;;;;;;;;;;;;;;4993119;28;19988;-90
2022/06/15 09:13:11;;;;;;;;;;;;;;;;;;4995339;28;19939;-90
2022/06/15 09:15:37;;;;;;;;;;;;;;;;;;4954860;28;20288;-89
2022/06/15 09:18:02;;;;;;;;;;;;;;;;;;4978367;28;20359;-89
2022/06/15 09:20:28;;;;;;;;;;;;;;;;;;4980847;28;20333;-90
2022/06/15 09:22:55;;;;;;;;;;;;;;;;;;4978804;28;20339;-90
2022/06/15 09:25:21;;;;;;;;;;;;;;;;;;4969805;28;19969;-89
2022/06/15 09:27:47;;;;;;;;;;;;;;;;;;4993879;28;22200;-90
2022/06/15 09:30:13;;;;;;;;;;;;;;;;;;4979903;28;19929;-90
2022/06/15 09:32:39;;;;;;;;;;;;;;;;;;4991812;28;19931;-89
2022/06/15 09:35:05;;;;;;;;;;;;;;;;;;5001356;28;19987;-90
2022/06/15 09:37:31;;;;;;;;;;;;;;;;;;4976707;28;19988;-89
2022/06/15 09:39:58;;;;;;;;;;;;;;;;;;4999932;28;20318;-90
2022/06/15 09:42:23;;;;;;;;;;;;;;;;;;4977789;28;19932;-90
2022/06/15 09:44:49;;;;;;;;;;;;;;;;;;4970612;28;20280;-90
2022/06/15 09:47:15;;;;;;;;;;;;;;;;;;4983858;28;20360;-89
2022/06/15 09:49:41;;;;;;;;;;;;;;;;;;4970703;28;20004;-89
2022/06/15 09:52:07;;;;;;;;;;;;;;;;;;4975409;28;19926;-90
2022/06/15 09:54:33;;;;;;;;;;;;;;;;;;4958482;28;19933;-90
2022/06/15 09:56:59;;;;;;;;;;;;;;;;;;4979084;28;19929;-90
2022/06/15 09:59:25;;;;;;;;;;;;;;;;;;4964633;28;19932;-90
2022/06/15 10:01:51;;;;;;;;;;;;;;;;;;4969644;28;20257;-90
2022/06/15 10:04:17;;;;;;;;;;;;;;;;;;4979104;28;19932;-90
2022/06/15 10:06:43;;;;;;;;;;;;;;;;;;4991180;28;19922;-90
2022/06/15 10:09:09;;;;;;;;;;;;;;;;;;4998438;28;19922;-90
2022/06/15 10:11:35;;;;;;;;;;;;;;;;;;4991710;28;19929;-90
2022/06/15 10:14:01;;;;;;;;;;;;;;;;;;4995473;28;20303;-90
2022/06/15 10:16:27;;;;;;;;;;;;;;;;;;4978664;28;19976;-90
2022/06/15 10:18:53;;;;;;;;;;;;;;;;;;4981882;28;19925;-90
2022/06/15 10:21:19;;;;;;;;;;;;;;;;;;4996756;28;19929;-91
2022/06/15 10:23:45;;;;;;;;;;;;;;;;;;4993492;28;19921;-90
2022/06/15 10:26:11;;;;;;;;;;;;;;;;;;4980706;28;19944;-90
2022/06/15 10:28:36;;;;;;;;;;;;;;;;;;4997319;28;19921;-90
2022/06/15 10:31:04;;;;;;;;;;;;;;;;;;4977078;28;19925;-90
2022/06/15 10:33:30;;;;;;;;;;;;;;;;;;4991211;28;20340;-90
2022/06/15 10:35:59;;;;;;;;;;;;;;;;;;4974806;28;19925;-90
2022/06/15 10:38:25;;;;;;;;;;;;;;;;;;4994441;28;19922;-90
2022/06/15 10:40:51;;;;;;;;;;;;;;;;;;4974453;28;20007;-90
2022/06/15 10:43:18;;;;;;;;;;;;;;;;;;4993920;28;20103;-89
2022/06/15 10:45:44;;;;;;;;;;;;;;;;;;4990558;28;20386;-89
2022/06/15 10:48:10;;;;;;;;;;;;;;;;;;4976860;28;19932;-89
2022/06/15 10:50:36;;;;;;;;;;;;;;;;;;4982750;28;19922;-89
2022/06/15 10:53:02;;;;;;;;;;;;;;;;;;4988082;28;19944;-89
2022/06/15 11:03:43;;;;;;;;;;;;;;;;;;4978886;28;20463;-89
2022/06/15 11:06:09;;;;;;;;;;;;;;;;;;4998621;28;19925;-90
2022/06/15 11:08:35;;;;;;;;;;;;;;;;;;4993106;28;19925;-90
2022/06/15 11:11:01;;;;;;;;;;;;;;;;;;5000466;28;20400;-90
2022/06/15 11:13:27;;;;;;;;;;;;;;;;;;4967912;28;19933;-89
2022/06/15 11:18:37;;;;;;;;;;;;;;;;;;4984241;28;19928;-88
2022/06/15 11:21:03;;;;;;;;;;;;;;;;;;4990644;28;19930;-89
2022/06/15 11:23:29;;;;;;;;;;;;;;;;;;4952632;28;19929;-88
2022/06/15 11:25:55;;;;;;;;;;;;;;;;;;4961015;28;19933;-88
2022/06/15 11:28:24;;;;;;;;;;;;;;;;;;4958865;28;19926;-88
2022/06/15 11:30:50;;;;;;;;;;;;;;;;;;4975237;28;19934;-88
2022/06/15 11:33:16;;;;;;;;;;;;;;;;;;4994790;28;19929;-88
2022/06/15 11:35:42;;;;;;;;;;;;;;;;;;4989188;28;19986;-89
2022/06/15 11:38:08;;;;;;;;;;;;;;;;;;4994625;28;19969;-89
2022/06/15 11:40:34;;;;;;;;;;;;;;;;;;4969749;28;19929;-89
2022/06/15 11:43:00;;;;;;;;;;;;;;;;;;4953874;28;19936;-88
2022/06/15 11:45:26;;;;;;;;;;;;;;;;;;4986706;28;19929;-89
2022/06/15 11:47:52;;;;;;;;;;;;;;;;;;4969900;28;19930;-88
2022/06/15 11:50:18;;;;;;;;;;;;;;;;;;4971177;28;20021;-89
2022/06/15 11:52:44;;;;;;;;;;;;;;;;;;4961658;28;20287;-89
2022/06/15 11:55:10;;;;;;;;;;;;;;;;;;4959737;28;19999;-89
2022/06/15 11:57:36;;;;;;;;;;;;;;;;;;4951053;28;19937;-89
2022/06/15 12:00:02;;;;;;;;;;;;;;;;;;4957983;28;20269;-89
2022/06/15 12:02:29;;;;;;;;;;;;;;;;;;4952197;28;19952;-88
2022/06/15 12:04:55;;;;;;;;;;;;;;;;;;4977003;28;20265;-89
2022/06/15 12:07:21;;;;;;;;;;;;;;;;;;4976751;28;19936;-89
2022/06/15 12:09:47;;;;;;;;;;;;;;;;;;4974134;28;21816;-89
2022/06/15 12:14:58;;;;;;;;;;;;;;;;;;4980661;28;20301;-89
2022/06/15 12:17:24;;;;;;;;;;;;;;;;;;4959577;28;19932;-89
2022/06/15 12:19:50;;;;;;;;;;;;;;;;;;4980782;28;19921;-89
2022/06/15 12:22:16;;;;;;;;;;;;;;;;;;4977630;28;20394;-89
2022/06/15 12:24:43;;;;;;;;;;;;;;;;;;4978854;28;19921;-89
2022/06/15 12:27:08;;;;;;;;;;;;;;;;;;4962911;28;19931;-89
2022/06/15 12:29:35;;;;;;;;;;;;;;;;;;4959828;28;20436;-89
2022/06/15 12:32:05;;;;;;;;;;;;;;;;;;4957676;28;20388;-89
2022/06/15 12:34:31;;;;;;;;;;;;;;;;;;4967184;28;19929;-89
2022/06/15 12:36:57;;;;;;;;;;;;;;;;;;4973139;28;19921;-90
2022/06/15 12:39:23;;;;;;;;;;;;;;;;;;4970857;28;20369;-89
2022/06/15 12:44:34;;;;;;;;;;;;;;;;;;4968796;28;20458;-89
2022/06/15 12:47:00;;;;;;;;;;;;;;;;;;4988167;28;19926;-89
2022/06/15 12:49:26;;;;;;;;;;;;;;;;;;4975807;28;19926;-89
2022/06/15 12:51:52;;;;;;;;;;;;;;;;;;4953767;28;19929;-89
2022/06/15 12:54:18;;;;;;;;;;;;;;;;;;4975643;28;19929;-90
2022/06/15 12:56:46;;;;;;;;;;;;;;;;;;4953651;28;19929;-89
2022/06/15 12:59:12;;;;;;;;;;;;;;;;;;4970908;28;19936;-89
2022/06/15 13:01:38;;;;;;;;;;;;;;;;;;4955613;28;19925;-89
2022/06/15 13:04:03;;;;;;;;;;;;;;;;;;4957151;28;19921;-90
2022/06/15 13:06:29;;;;;;;;;;;;;;;;;;4964958;28;20024;-90
2022/06/15 13:08:55;;;;;;;;;;;;;;;;;;4971063;28;19929;-90
2022/06/15 13:11:21;;;;;;;;;;;;;;;;;;4957184;28;19932;-90
2022/06/15 13:13:48;;;;;;;;;;;;;;;;;;4952252;28;19933;-90
2022/06/15 13:16:14;;;;;;;;;;;;;;;;;;4955877;28;19932;-89
2022/06/15 13:18:40;;;;;;;;;;;;;;;;;;4953197;28;19922;-90
2022/06/15 13:21:06;;;;;;;;;;;;;;;;;;4975003;28;19976;-90
2022/06/15 13:23:32;;;;;;;;;;;;;;;;;;4966943;28;19933;-89
2022/06/15 13:25:58;;;;;;;;;;;;;;;;;;4954716;28;20049;-90
2022/06/15 13:28:24;;;;;;;;;;;;;;;;;;4973932;28;19932;-91
2022/06/15 13:30:50;;;;;;;;;;;;;;;;;;4964749;28;20411;-90
2022/06/15 13:33:16;;;;;;;;;;;;;;;;;;4953390;28;19926;-90
2022/06/15 13:35:42;;;;;;;;;;;;;;;;;;4966584;28;22979;-91
2022/06/15 13:38:08;;;;;;;;;;;;;;;;;;4972084;28;19921;-92
2022/06/15 13:40:34;;;;;;;;;;;;;;;;;;4966738;28;20236;-92
2022/06/15 13:43:01;;;;;;;;;;;;;;;;;;4955855;28;19937;-92
2022/06/15 13:45:29;;;;;;;;;;;;;;;;;;4970543;28;19937;-92
2022/06/15 13:47:55;;;;;;;;;;;;;;;;;;4971159;28;20267;-90
2022/06/15 13:50:21;;;;;;;;;;;;;;;;;;4956168;28;19930;-92
2022/06/15 13:52:47;;;;;;;;;;;;;;;;;;4966547;28;19933;-91
2022/06/15 13:55:13;;;;;;;;;;;;;;;;;;4972294;28;19929;-91
2022/06/15 13:57:39;;;;;;;;;;;;;;;;;;4973353;28;20638;-92
2022/06/15 14:00:05;;;;;;;;;;;;;;;;;;4962138;28;19945;-91
2022/06/15 14:02:30;;;;;;;;;;;;;;;;;;4972865;28;19925;-91
2022/06/15 14:04:59;;;;;;;;;;;;;;;;;;4958731;28;19969;-91
2022/06/15 14:07:28;;;;;;;;;;;;;;;;;;4958062;28;19980;-91
2022/06/15 14:10:06;;;;;;;;;;;;;;;;;;4992805;28;19929;-91
2022/06/15 14:12:35;;;;;;;;;;;;;;;;;;4991353;28;19932;-91
2022/06/15 14:18:09;;;;;;;;;;;;;;;;;;4978700;28;20436;-91
2022/06/15 14:20:38;;;;;;;;;;;;;;;;;;4958461;28;19937;-92
2022/06/15 14:23:20;;;;;;;;;;;;;;;;;;4974510;28;20005;-91
2022/06/15 14:26:06;;;;;;;;;;;;;;;;;;4979280;28;20257;-91
2022/06/15 14:38:18;;;;;;;;;;;;;;;;;;4879899;29;19927;-91
2022/06/15 14:50:38;;;;;;;;;;;;;;;;;;4743047;29;20433;-85
2022/06/15 14:56:34;;;;;;;;;;;;;;;;;;;;;
2022/06/15 15:02:49;;;;;;;;;;;;;;;;;;;;;
2022/06/15 15:05:39;;;;;;;;;;;;;;;;;;4676767;30;19997;-83
2022/06/15 15:08:11;;;;;;;;;;;;;;;;;;4773651;29;20385;-83
2022/06/15 15:17:28;;;;;;;;;;;;;;;;;;4765857;29;19925;-83
2022/06/15 15:20:12;;;;;;;;;;;;;;;;;;4818535;29;21932;-83
2022/06/15 15:23:00;;;;;;;;;;;;;;;;;;;;;
2022/06/15 15:26:03;;;;;;;;;;;;;;;;;;4836043;29;19932;-83
2022/06/15 15:34:30;;;;;;;;;;;;;;;;;;4809357;29;19936;-83
2022/06/15 15:40:15;;;;;;;;;;;;;;;;;;;;;
2022/06/15 15:46:40;;;;;;;;;;;;;;;;;;4801090;29;19924;-82
2022/06/15 15:52:44;;;;;;;;;;;;;;;;;;;;;
2022/06/15 15:55:29;;;;;;;;;;;;;;;;;;4835904;29;19939;-83
2022/06/15 15:58:12;;;;;;;;;;;;;;;;;;4839637;29;20080;-83
2022/06/15 16:04:14;;;;;;;;;;;;;;;;;;;;;
2022/06/15 16:07:10;;;;;;;;;;;;;;;;;;4874917;29;19986;-80
2022/06/15 16:09:57;;;;;;;;;;;;;;;;;;;;;
2022/06/15 16:15:51;;;;;;;;;;;;;;;;;;4925642;28;20116;-83
2022/06/15 16:18:34;;;;;;;;;;;;;;;;;;4866055;29;19970;-82
2022/06/15 16:21:00;;;;;;;;;;;;;;;;;;4917616;28;20275;-84
2022/06/15 16:23:39;;;;;;;;;;;;;;;;;;;;;
2022/06/15 16:39:02;;;;;;;;;;;;;;;;;;4801978;29;19928;-83
2022/06/15 16:41:28;;;;;;;;;;;;;;;;;;4833642;29;19935;-83
2022/06/15 16:43:54;;;;;;;;;;;;;;;;;;4889119;28;19929;-84
2022/06/15 16:46:20;;;;;;;;;;;;;;;;;;4933820;28;20005;-83
2022/06/15 16:48:46;;;;;;;;;;;;;;;;;;4943815;28;19921;-83
2022/06/15 16:51:12;;;;;;;;;;;;;;;;;;4949554;28;19929;-84
2022/06/15 16:53:38;;;;;;;;;;;;;;;;;;4942050;28;19977;-83
2022/06/15 16:56:04;;;;;;;;;;;;;;;;;;4946841;28;19929;-84
2022/06/15 16:58:30;;;;;;;;;;;;;;;;;;4951618;28;19933;-83
2022/06/15 17:00:56;;;;;;;;;;;;;;;;;;4988893;28;19921;-83
2022/06/15 17:03:22;;;;;;;;;;;;;;;;;;4965020;28;20398;-83
2022/06/15 17:05:49;;;;;;;;;;;;;;;;;;4951166;28;20286;-83
2022/06/15 17:08:15;;;;;;;;;;;;;;;;;;4972186;28;19929;-83
2022/06/15 17:10:41;;;;;;;;;;;;;;;;;;4966176;28;19937;-83
2022/06/15 17:13:07;;;;;;;;;;;;;;;;;;4947466;28;19925;-83
2022/06/15 17:15:33;;;;;;;;;;;;;;;;;;4951454;28;19921;-83
2022/06/15 17:17:59;;;;;;;;;;;;;;;;;;4964965;28;19925;-83
2022/06/15 17:20:25;;;;;;;;;;;;;;;;;;4971129;28;19925;-84
2022/06/15 17:22:51;;;;;;;;;;;;;;;;;;4965921;28;19921;-83
2022/06/15 17:25:17;;;;;;;;;;;;;;;;;;4969601;28;20269;-83
2022/06/15 17:27:44;;;;;;;;;;;;;;;;;;4988063;28;19975;-83
2022/06/15 17:30:10;;;;;;;;;;;;;;;;;;4973002;28;19921;-84
2022/06/15 17:32:36;;;;;;;;;;;;;;;;;;4968499;28;19940;-83
2022/06/15 17:35:02;;;;;;;;;;;;;;;;;;4993709;28;19929;-83
2022/06/15 17:37:28;;;;;;;;;;;;;;;;;;4988695;28;19976;-84
2022/06/15 17:39:54;;;;;;;;;;;;;;;;;;4971173;28;19930;-83
2022/06/15 17:42:20;;;;;;;;;;;;;;;;;;4948951;28;19931;-81
2022/06/15 17:44:46;;;;;;;;;;;;;;;;;;4962996;28;20236;-81
2022/06/15 17:47:12;;;;;;;;;;;;;;;;;;4991773;28;20384;-82
2022/06/15 17:49:38;;;;;;;;;;;;;;;;;;4985481;28;19936;-82
2022/06/15 17:52:04;;;;;;;;;;;;;;;;;;4973827;28;20020;-82
2022/06/15 17:54:30;;;;;;;;;;;;;;;;;;4983440;28;19925;-82
2022/06/15 17:56:56;;;;;;;;;;;;;;;;;;4991674;28;19934;-82
2022/06/15 17:59:22;;;;;;;;;;;;;;;;;;4992565;28;20020;-82
2022/06/15 18:01:48;;;;;;;;;;;;;;;;;;4965717;28;19930;-82
2022/06/15 18:04:14;;;;;;;;;;;;;;;;;;4975486;28;20268;-82
2022/06/15 18:06:41;;;;;;;;;;;;;;;;;;4966951;28;19925;-81
2022/06/15 18:09:08;;;;;;;;;;;;;;;;;;4987397;28;19932;-81
2022/06/15 18:11:34;;;;;;;;;;;;;;;;;;4982386;28;23668;-81
2022/06/15 18:13:59;;;;;;;;;;;;;;;;;;4987829;28;19926;-82
2022/06/15 18:16:25;;;;;;;;;;;;;;;;;;4967957;28;20467;-82
2022/06/15 18:18:51;;;;;;;;;;;;;;;;;;4986302;28;20261;-81
2022/06/15 18:21:17;;;;;;;;;;;;;;;;;;4990973;28;20443;-81
2022/06/15 18:23:43;;;;;;;;;;;;;;;;;;4968382;28;20385;-81
2022/06/15 18:26:09;;;;;;;;;;;;;;;;;;4973238;28;19933;-82
2022/06/15 18:28:36;;;;;;;;;;;;;;;;;;4982813;28;20020;-81
2022/06/15 18:31:02;;;;;;;;;;;;;;;;;;4987545;28;19930;-84
2022/06/15 18:33:28;;;;;;;;;;;;;;;;;;4987724;28;19934;-86
2022/06/15 18:35:53;;;;;;;;;;;;;;;;;;4951644;28;20003;-86
2022/06/15 18:38:21;;;;;;;;;;;;;;;;;;4988490;28;19925;-86
2022/06/15 18:40:48;;;;;;;;;;;;;;;;;;4986925;28;22913;-86
2022/06/15 18:48:46;;;;;;;;;;;;;;;;;;4957525;28;19936;-87
2022/06/15 18:51:12;;;;;;;;;;;;;;;;;;4985440;28;19928;-86
2022/06/15 18:53:38;;;;;;;;;;;;;;;;;;4967887;28;19929;-86
2022/06/15 18:56:04;;;;;;;;;;;;;;;;;;4984617;28;19922;-86
2022/06/15 18:58:30;;;;;;;;;;;;;;;;;;4953540;28;20020;-86
2022/06/15 19:00:56;;;;;;;;;;;;;;;;;;4962859;28;20571;-86
2022/06/15 19:03:22;;;;;;;;;;;;;;;;;;4983343;28;19936;-87
2022/06/15 19:05:48;;;;;;;;;;;;;;;;;;4979946;28;20008;-86
2022/06/15 19:08:14;;;;;;;;;;;;;;;;;;4987050;28;19929;-87
2022/06/15 19:10:40;;;;;;;;;;;;;;;;;;4960287;28;19971;-86
2022/06/15 19:13:06;;;;;;;;;;;;;;;;;;4965309;28;20387;-86
2022/06/15 19:15:32;;;;;;;;;;;;;;;;;;4960111;28;19921;-86
2022/06/15 19:17:58;;;;;;;;;;;;;;;;;;4955233;28;20106;-85
2022/06/15 19:20:24;;;;;;;;;;;;;;;;;;4962815;28;19988;-85
2022/06/15 19:22:50;;;;;;;;;;;;;;;;;;4946485;28;19929;-86
2022/06/15 19:25:15;;;;;;;;;;;;;;;;;;4965016;28;19921;-86
2022/06/15 19:27:41;;;;;;;;;;;;;;;;;;4962423;28;19936;-86
2022/06/15 19:30:07;;;;;;;;;;;;;;;;;;4980700;28;19944;-87
2022/06/15 19:32:33;;;;;;;;;;;;;;;;;;4947098;28;19959;-86
2022/06/15 19:35:03;;;;;;;;;;;;;;;;;;4970615;28;20023;-85
2022/06/15 19:37:29;;;;;;;;;;;;;;;;;;4961065;28;19930;-85
2022/06/15 19:39:55;;;;;;;;;;;;;;;;;;4958827;28;19937;-86
2022/06/15 19:45:10;;;;;;;;;;;;;;;;;;;;;
2022/06/15 20:29:53;;;;;;;;;;;;;;;;;;4869506;29;20272;-89
2022/06/15 20:32:35;;;;;;;;;;;;;;;;;;;;;
2022/06/15 20:38:07;;;;;;;;;;;;;;;;;;4889947;29;19930;-86
2022/06/15 20:40:46;;;;;;;;;;;;;;;;;;;;;
2022/06/15 20:43:22;;;;;;;;;;;;;;;;;;4914539;28;19978;-86
2022/06/15 20:46:03;;;;;;;;;;;;;;;;;;4912869;28;19938;-86
2022/06/15 20:51:51;;;;;;;;;;;;;;;;;;;;;